Time;durP1;ratioP1;P1;durP2;ratioP2;P2;SDS_P1;SDS_P2;PMS_P1;PMS_P2;Temp;Humidity;BMP_temperature;BMP_pressure;BME280_temperature;BME280_humidity;BME280_pressure;Samples;Min_cycle;Max_cycle;Signal;HPM_P1;HPM_P2
2022/04/08 00:04:33;;;;;;;4.30;3.27;;;;;;;7.89;72.88;98235.94;5010834;28;20193;-75
2022/04/08 00:07:05;;;;;;;3.67;2.87;;;;;;;8.01;72.67;98240.00;5019347;28;20476;-75
2022/04/08 00:09:30;;;;;;;7.20;3.10;;;;;;;7.51;72.64;98247.88;5017705;28;20449;-75
2022/04/08 00:11:57;;;;;;;5.70;3.00;;;;;;;7.64;72.63;98254.56;5018723;28;20418;-76
2022/04/08 00:14:22;;;;;;;5.97;2.97;;;;;;;8.20;72.01;98256.94;5018514;28;20179;-76
2022/04/08 00:17:16;;;;;;;;;;;;;;;;;;;;;
2022/04/08 00:19:42;;;;;;;3.57;2.77;;;;;;;7.75;73.88;98278.56;5021589;28;20178;-75
2022/04/08 00:22:11;;;;;;;4.97;2.77;;;;;;;7.96;73.29;98280.78;5021978;28;20427;-75
2022/04/08 00:24:50;;;;;;;;;;;;;;;;;;;;;
2022/04/08 00:27:32;;;;;;;3.47;2.90;;;;;;;7.40;73.46;98305.09;5022470;28;20402;-76
2022/04/08 00:29:57;;;;;;;7.47;3.90;;;;;;;7.33;73.58;98322.47;5006390;28;20471;-74
2022/04/08 00:32:24;;;;;;;6.07;2.97;;;;;;;7.38;73.67;98328.44;5022371;28;20421;-76
2022/04/08 00:34:49;;;;;;;6.67;4.23;;;;;;;7.70;72.76;98331.41;5021740;28;20175;-73
2022/04/08 00:37:15;;;;;;;6.23;3.00;;;;;;;7.78;71.91;98342.50;5021194;28;20486;-73
2022/04/08 00:39:40;;;;;;;8.00;2.67;;;;;;;7.69;72.05;98346.09;5022531;28;20177;-73
2022/04/08 00:42:06;;;;;;;4.23;2.80;;;;;;;7.66;72.03;98353.94;5021280;28;20175;-76
2022/04/08 00:44:32;;;;;;;6.43;4.70;;;;;;;7.70;72.62;98359.94;5021840;28;20262;-77
2022/04/08 00:46:57;;;;;;;5.47;3.00;;;;;;;7.63;71.84;98369.56;5022483;28;20163;-75
2022/04/08 00:49:22;;;;;;;5.00;2.90;;;;;;;7.29;73.05;98371.81;5021759;28;20233;-76
2022/04/08 00:51:48;;;;;;;4.90;3.10;;;;;;;7.68;72.54;98380.69;5021857;28;20294;-78
2022/04/08 00:54:13;;;;;;;11.63;3.93;;;;;;;7.52;72.39;98394.78;5027220;28;20174;-77
2022/04/08 00:56:38;;;;;;;7.73;3.43;;;;;;;7.40;73.24;98404.47;5021941;28;20202;-79
2022/04/08 00:59:04;;;;;;;10.50;3.23;;;;;;;7.33;73.40;98414.94;5021734;28;20185;-76
2022/04/08 01:01:31;;;;;;;9.97;3.77;;;;;;;7.25;73.72;98422.81;5021492;28;20179;-78
2022/04/08 01:03:57;;;;;;;6.70;3.40;;;;;;;6.98;74.54;98434.44;5021988;28;20364;-78
2022/04/08 01:06:25;;;;;;;11.20;4.03;;;;;;;7.08;75.14;98438.63;5021517;28;20414;-75
2022/04/08 01:08:51;;;;;;;7.30;3.33;;;;;;;7.56;74.42;98450.88;5020964;28;20428;-76
2022/04/08 01:11:16;;;;;;;6.53;2.97;;;;;;;6.86;75.65;98457.03;5020373;28;20425;-74
2022/04/08 01:13:42;;;;;;;9.07;3.60;;;;;;;7.01;75.74;98452.50;5021233;28;20421;-75
2022/04/08 01:16:08;;;;;;;9.03;3.30;;;;;;;6.83;74.78;98467.44;5021070;28;20493;-74
2022/04/08 01:18:34;;;;;;;9.93;3.30;;;;;;;7.08;75.01;98473.16;5021587;28;20182;-74
2022/04/08 01:21:06;;;;;;;6.40;3.00;;;;;;;6.75;75.25;98474.41;5020986;28;20492;-73
2022/04/08 01:23:36;;;;;;;6.53;3.10;;;;;;;7.10;74.59;98485.22;5021344;28;20468;-73
2022/04/08 01:26:08;;;;;;;4.03;3.40;;;;;;;7.01;74.74;98487.06;5021171;28;20517;-77
2022/04/08 01:28:34;;;;;;;5.80;3.37;;;;;;;6.74;75.21;98494.28;5020730;28;20400;-77
2022/04/08 01:30:59;;;;;;;7.33;3.80;;;;;;;6.48;76.91;98496.28;5020952;28;20429;-78
2022/04/08 01:33:24;;;;;;;8.17;3.27;;;;;;;6.39;77.97;98499.81;5021756;28;20167;-79
2022/04/08 01:35:50;;;;;;;8.37;3.30;;;;;;;7.03;76.64;98497.41;5021818;28;20187;-79
2022/04/08 01:38:15;;;;;;;6.03;3.30;;;;;;;6.40;77.22;98504.13;5021551;28;20225;-80
2022/04/08 01:40:40;;;;;;;5.63;3.50;;;;;;;6.31;77.80;98512.81;5021741;28;20265;-80
2022/04/08 01:43:06;;;;;;;7.07;2.93;;;;;;;6.59;77.38;98512.56;5022526;28;20271;-80
2022/04/08 01:45:31;;;;;;;5.63;2.90;;;;;;;6.98;76.40;98515.59;5021831;28;20574;-78
2022/04/08 01:47:56;;;;;;;3.93;3.07;;;;;;;7.18;76.57;98530.88;5021380;28;20214;-78
2022/04/08 01:50:22;;;;;;;7.33;3.90;;;;;;;6.86;77.33;98526.06;5021987;28;20187;-79
2022/04/08 01:52:47;;;;;;;7.20;3.63;;;;;;;6.63;78.75;98540.16;5021349;28;20585;-80
2022/04/08 01:55:13;;;;;;;7.67;3.13;;;;;;;6.61;78.96;98554.81;5021630;28;20178;-79
2022/04/08 01:57:38;;;;;;;7.73;3.37;;;;;;;6.63;77.62;98540.16;5021766;28;20194;-77
2022/04/08 02:00:04;;;;;;;6.10;3.60;;;;;;;6.48;77.62;98548.03;5019838;28;20183;-80
2022/04/08 02:02:30;;;;;;;8.80;3.90;;;;;;;6.57;76.44;98553.97;5020034;28;20314;-75
2022/04/08 02:04:55;;;;;;;6.83;3.87;;;;;;;6.81;76.32;98546.84;5020615;28;20454;-75
2022/04/08 02:07:20;;;;;;;7.20;3.40;;;;;;;6.55;76.85;98552.31;5019418;28;20499;-75
2022/04/08 02:09:46;;;;;;;6.53;3.10;;;;;;;6.53;76.62;98554.03;5020392;28;20579;-76
2022/04/08 02:12:11;;;;;;;4.40;3.10;;;;;;;6.62;76.24;98566.06;5020389;28;20459;-77
2022/04/08 02:14:37;;;;;;;8.93;3.47;;;;;;;6.50;76.16;98567.88;5020006;28;20548;-74
2022/04/08 02:17:02;;;;;;;10.40;3.20;;;;;;;6.51;75.35;98579.94;5020116;28;20509;-77
2022/04/08 02:19:27;;;;;;;7.40;2.90;;;;;;;6.23;76.92;98581.91;5020417;28;20262;-75
2022/04/08 02:21:53;;;;;;;8.97;3.47;;;;;;;6.38;75.95;98579.19;5019708;28;20221;-76
2022/04/08 02:24:18;;;;;;;8.30;3.33;;;;;;;6.33;76.87;98580.97;5019793;28;20241;-75
2022/04/08 02:26:44;;;;;;;9.70;4.03;;;;;;;6.99;75.48;98584.66;5020190;28;20209;-75
2022/04/08 02:29:10;;;;;;;5.90;3.00;;;;;;;6.52;76.37;98591.16;5019848;28;20186;-76
2022/04/08 02:31:35;;;;;;;8.40;4.13;;;;;;;6.52;76.75;98598.91;5019998;28;20174;-81
2022/04/08 02:34:00;;;;;;;7.63;3.67;;;;;;;6.40;76.75;98605.06;5020204;28;20664;-78
2022/04/08 02:36:26;;;;;;;3.83;2.80;;;;;;;6.57;76.33;98631.66;5020195;28;20576;-78
2022/04/08 02:38:51;;;;;;;6.00;3.30;;;;;;;6.47;76.51;98627.44;5020306;28;20179;-78
2022/04/08 02:41:16;;;;;;;5.70;2.97;;;;;;;6.62;74.17;98616.09;5025749;28;20213;-78
2022/04/08 02:43:41;;;;;;;4.70;3.00;;;;;;;6.64;73.13;98637.63;5025884;28;20171;-80
2022/04/08 02:46:07;;;;;;;4.90;3.00;;;;;;;6.39;73.28;98652.53;5020354;28;20168;-79
2022/04/08 02:48:32;;;;;;;5.53;3.10;;;;;;;6.00;74.10;98660.50;5021894;28;20171;-82
2022/04/08 02:50:57;;;;;;;8.07;3.70;;;;;;;6.48;73.91;98657.63;5019648;28;20175;-78
2022/04/08 02:53:23;;;;;;;5.90;2.90;;;;;;;6.05;74.46;98669.09;5019176;28;20233;-81
2022/04/08 02:55:48;;;;;;;7.10;3.30;;;;;;;6.66;74.67;98689.44;5000253;28;20175;-80
2022/04/08 02:58:13;;;;;;;10.97;3.33;;;;;;;6.16;74.43;98694.91;5000730;28;20556;-80
2022/04/08 03:00:40;;;;;;;7.67;3.07;;;;;;;5.94;72.98;98680.34;5000368;28;20469;-79
2022/04/08 03:03:06;;;;;;;12.63;3.73;;;;;;;6.33;72.26;98681.00;5000619;28;20255;-81
2022/04/08 03:05:31;;;;;;;8.30;3.63;;;;;;;6.34;70.82;98685.31;5000543;28;20750;-80
2022/04/08 03:07:56;;;;;;;9.33;3.60;;;;;;;6.75;70.89;98707.47;5016637;28;20203;-80
2022/04/08 03:10:22;;;;;;;8.17;3.70;;;;;;;6.25;72.69;98699.16;5000917;28;20183;-81
2022/04/08 03:12:47;;;;;;;7.77;3.50;;;;;;;6.61;71.50;98692.03;5000517;28;20183;-80
2022/04/08 03:15:12;;;;;;;10.10;3.60;;;;;;;6.42;70.72;98691.31;5001150;28;20195;-82
2022/04/08 03:17:38;;;;;;;6.87;3.50;;;;;;;6.54;68.88;98690.38;5000445;28;20211;-82
2022/04/08 03:20:04;;;;;;;8.27;3.17;;;;;;;6.51;67.61;98696.44;4999769;28;20254;-79
2022/04/08 03:22:30;;;;;;;7.63;3.87;;;;;;;6.57;66.05;98698.97;4999207;28;20167;-77
2022/04/08 03:24:55;;;;;;;8.70;3.40;;;;;;;6.58;64.58;98677.38;4999503;28;20415;-79
2022/04/08 03:27:20;;;;;;;7.13;3.53;;;;;;;6.90;63.92;98690.94;4999695;28;20314;-78
2022/04/08 03:29:48;;;;;;;5.80;3.00;;;;;;;6.56;62.84;98697.25;4999792;28;20413;-79
2022/04/08 03:32:13;;;;;;;8.13;3.13;;;;;;;6.93;61.89;98706.47;4999413;28;20178;-82
2022/04/08 03:34:39;;;;;;;6.97;3.30;;;;;;;6.79;62.25;98713.50;5015161;28;20423;-77
2022/04/08 03:37:04;;;;;;;7.80;2.73;;;;;;;6.95;62.13;98716.81;4999992;28;20545;-76
2022/04/08 03:39:30;;;;;;;8.40;3.00;;;;;;;6.61;62.47;98733.47;4999418;28;20171;-78
2022/04/08 03:41:55;;;;;;;4.70;2.73;;;;;;;6.11;63.46;98719.09;4999151;28;20426;-78
2022/04/08 03:44:20;;;;;;;6.47;3.27;;;;;;;6.76;64.09;98726.47;4999631;28;20175;-80
2022/04/08 03:46:46;;;;;;;15.77;3.77;;;;;;;6.77;64.13;98729.03;4999183;28;20176;-77
2022/04/08 03:49:14;;;;;;;8.73;3.37;;;;;;;6.26;65.93;98736.28;4999363;28;20176;-78
2022/04/08 03:51:43;;;;;;;10.27;3.70;;;;;;;6.44;65.50;98740.47;4999507;28;20453;-77
2022/04/08 03:54:08;;;;;;;4.33;3.03;;;;;;;5.98;67.31;98744.16;5012906;28;20849;-78
2022/04/08 03:56:34;;;;;;;6.20;3.20;;;;;;;5.78;67.46;98749.34;5018920;28;20457;-78
2022/04/08 03:58:59;;;;;;;6.73;2.90;;;;;;;5.88;67.37;98751.06;5019111;28;20179;-78
2022/04/08 04:01:25;;;;;;;4.27;3.00;;;;;;;5.84;66.90;98755.38;5019392;28;20178;-77
2022/04/08 04:03:50;;;;;;;5.83;3.30;;;;;;;5.73;67.36;98760.56;5018760;28;20218;-78
2022/04/08 04:06:16;;;;;;;6.00;3.13;;;;;;;6.03;67.59;98766.53;5019613;28;20537;-81
2022/04/08 04:08:41;;;;;;;8.60;2.93;;;;;;;5.87;67.25;98775.19;5018949;28;20536;-78
2022/04/08 04:11:06;;;;;;;8.80;3.50;;;;;;;5.60;67.59;98778.72;5019400;28;20262;-82
2022/04/08 04:13:32;;;;;;;7.20;2.73;;;;;;;5.43;68.14;98787.34;5019827;28;20171;-83
2022/04/08 04:15:57;;;;;;;7.60;4.17;;;;;;;5.92;67.42;98786.38;5018872;28;20262;-80
2022/04/08 04:18:22;;;;;;;10.10;3.53;;;;;;;5.85;67.81;98797.63;5002045;28;20528;-81
2022/04/08 04:20:48;;;;;;;7.43;4.10;;;;;;;5.65;68.28;98808.00;5019718;28;20163;-81
2022/04/08 04:23:13;;;;;;;9.17;3.77;;;;;;;5.79;68.35;98811.44;5018886;28;20503;-77
2022/04/08 04:25:38;;;;;;;6.63;2.90;;;;;;;5.53;69.58;98820.09;5018936;28;20190;-79
2022/04/08 04:28:04;;;;;;;5.17;2.90;;;;;;;5.79;69.39;98824.34;5019571;28;20175;-81
2022/04/08 04:30:30;;;;;;;8.10;3.40;;;;;;;5.23;71.10;98836.44;5019172;28;20216;-78
2022/04/08 04:32:56;;;;;;;6.10;3.00;;;;;;;5.47;71.19;98837.31;5018174;28;20795;-82
2022/04/08 04:35:22;;;;;;;6.93;3.30;;;;;;;5.52;71.89;98835.56;5019733;28;20178;-79
2022/04/08 04:37:48;;;;;;;3.33;3.03;;;;;;;5.88;70.73;98849.31;5018810;28;20553;-77
2022/04/08 04:40:13;;;;;;;9.07;3.23;;;;;;;5.48;71.86;98846.78;5018274;28;20460;-79
2022/04/08 04:42:38;;;;;;;6.77;3.20;;;;;;;5.01;73.61;98859.66;5017948;28;20177;-78
2022/04/08 04:45:04;;;;;;;10.23;4.00;;;;;;;5.34;73.69;98855.38;5018865;28;20183;-82
2022/04/08 04:47:29;;;;;;;9.10;3.50;;;;;;;5.65;73.79;98859.69;5018678;28;20183;-80
2022/04/08 04:49:54;;;;;;;9.83;3.37;;;;;;;5.27;74.13;98866.59;5019354;28;20210;-79
2022/04/08 04:52:20;;;;;;;9.00;3.57;;;;;;;5.16;73.59;98870.91;5018810;28;20171;-81
2022/04/08 04:54:45;;;;;;;5.93;3.00;;;;;;;5.56;73.92;98860.56;5022912;28;20571;-82
2022/04/08 04:57:11;;;;;;;10.50;3.60;;;;;;;5.19;74.80;98873.47;5018989;28;20226;-79
2022/04/08 04:59:36;;;;;;;4.90;3.33;;;;;;;5.57;74.93;98870.03;5017716;28;20185;-76
2022/04/08 05:02:01;;;;;;;13.80;3.47;;;;;;;5.19;75.23;98876.06;5018125;28;20475;-80
2022/04/08 05:04:27;;;;;;;5.53;3.10;;;;;;;5.61;74.24;98878.66;5020050;28;20245;-80
2022/04/08 05:06:52;;;;;;;4.93;3.73;;;;;;;5.33;74.88;98871.78;5021708;28;20555;-78
2022/04/08 05:09:17;;;;;;;6.40;4.43;;;;;;;5.94;74.09;98882.94;5021801;28;20175;-77
2022/04/08 05:11:43;;;;;;;6.30;3.53;;;;;;;5.71;74.20;98877.78;5022371;28;20221;-78
2022/04/08 05:14:08;;;;;;;8.87;3.83;;;;;;;5.15;74.89;98884.66;5021253;28;20173;-76
2022/04/08 05:16:33;;;;;;;9.40;3.70;;;;;;;5.79;74.51;98883.84;5021241;28;20472;-75
2022/04/08 05:18:59;;;;;;;7.97;3.70;;;;;;;5.99;73.35;98891.56;5021965;28;20198;-76
2022/04/08 05:21:24;;;;;;;16.67;3.70;;;;;;;5.60;74.22;98893.28;5021011;28;20174;-74
2022/04/08 05:23:49;;;;;;;3.63;2.60;;;;;;;5.80;73.70;98900.19;5020924;28;20607;-75
2022/04/08 05:26:15;;;;;;;6.37;3.47;;;;;;;5.81;73.19;98901.94;5021468;28;20552;-75
2022/04/08 05:28:41;;;;;;;7.50;3.10;;;;;;;5.69;73.41;98901.06;5021465;28;20586;-78
2022/04/08 05:31:06;;;;;;;8.80;3.60;;;;;;;6.06;72.91;98910.53;5021766;28;20421;-81
2022/04/08 05:33:32;;;;;;;5.60;3.40;;;;;;;6.03;73.22;98915.72;5021164;28;20495;-81
2022/04/08 05:35:57;;;;;;;7.93;3.73;;;;;;;6.00;73.60;98918.31;5021219;28;20171;-80
2022/04/08 05:38:22;;;;;;;8.87;4.27;;;;;;;5.66;74.02;98923.47;5021687;28;20225;-79
2022/04/08 05:40:49;;;;;;;8.53;3.43;;;;;;;5.52;74.01;98928.63;5022672;28;20225;-80
2022/04/08 05:43:15;;;;;;;7.73;3.57;;;;;;;6.43;73.06;98933.75;5022053;28;20167;-77
2022/04/08 05:45:40;;;;;;;8.10;3.60;;;;;;;7.75;69.00;98924.41;5021551;28;20432;-79
2022/04/08 05:48:06;;;;;;;11.53;6.23;;;;;;;9.34;64.41;98921.75;5021472;28;20201;-76
2022/04/08 05:50:32;;;;;;;7.80;3.70;;;;;;;9.49;61.88;98925.88;5019847;28;20249;-77
2022/04/08 05:52:58;;;;;;;8.13;3.67;;;;;;;8.85;62.42;98935.41;5020488;28;20460;-75
2022/04/08 05:55:23;;;;;;;8.73;3.40;;;;;;;7.76;63.91;98933.88;5021819;28;20594;-77
2022/04/08 05:57:48;;;;;;;4.53;3.27;;;;;;;6.41;68.41;98951.00;5020306;28;20203;-77
2022/04/08 06:00:15;;;;;;;7.53;3.43;;;;;;;6.29;70.33;98951.91;5020557;28;20186;-73
2022/04/08 06:02:45;;;;;;;10.87;3.77;;;;;;;6.95;69.68;98953.41;5020467;28;20257;-74
2022/04/08 06:05:11;;;;;;;9.87;3.40;;;;;;;8.14;65.42;98954.34;5020475;28;20433;-79
2022/04/08 06:07:47;;;;;;;8.73;3.67;;;;;;;9.68;61.04;98944.66;5021412;28;20400;-80
2022/04/08 06:10:13;;;;;;;12.83;3.80;;;;;;;9.61;59.48;98941.28;5000896;28;20414;-80
2022/04/08 06:12:38;;;;;;;8.37;3.03;;;;;;;10.10;57.54;98933.56;5000274;28;20422;-76
2022/04/08 06:15:04;;;;;;;6.73;3.23;;;;;;;10.90;55.99;98942.47;5009368;28;20183;-77
2022/04/08 06:17:36;;;;;;;8.20;4.00;;;;;;;12.02;53.18;98937.38;5008612;28;20294;-76
2022/04/08 06:20:01;;;;;;;6.30;2.70;;;;;;;11.91;52.93;98932.38;5000019;28;20821;-74
2022/04/08 06:22:26;;;;;;;7.97;3.63;;;;;;;11.86;52.03;98937.72;5018180;28;20408;-76
2022/04/08 06:24:51;;;;;;;5.90;3.07;;;;;;;11.28;52.94;98942.53;5019759;28;20179;-76
2022/04/08 06:27:17;;;;;;;9.60;3.53;;;;;;;10.41;55.32;98959.94;5020337;28;20574;-73
2022/04/08 06:29:42;;;;;;;7.53;3.77;;;;;;;11.20;54.03;98955.75;5019626;28;20539;-74
2022/04/08 06:32:08;;;;;;;7.70;3.40;;;;;;;11.25;52.99;98953.06;5019905;28;20480;-76
2022/04/08 06:34:33;;;;;;;6.67;3.50;;;;;;;11.91;51.34;98954.13;5019872;28;20221;-76
2022/04/08 06:36:58;;;;;;;8.03;3.20;;;;;;;11.78;50.49;98955.31;5019207;28;20238;-77
2022/04/08 06:39:23;;;;;;;8.73;3.90;;;;;;;11.32;52.86;98966.81;5018619;28;20529;-77
2022/04/08 06:41:49;;;;;;;9.10;3.47;;;;;;;10.61;54.05;98971.75;5019679;28;20197;-77
2022/04/08 06:44:14;;;;;;;6.03;3.60;;;;;;;11.45;51.55;98974.34;5018846;28;20175;-77
2022/04/08 06:46:39;;;;;;;5.83;3.27;;;;;;;10.63;54.55;98975.16;5015775;28;20176;-78
2022/04/08 06:49:05;;;;;;;6.53;3.37;;;;;;;10.86;53.39;98972.09;5013392;28;20183;-76
2022/04/08 06:51:30;;;;;;;6.90;3.03;;;;;;;11.42;52.66;98977.03;5012651;28;20181;-77
2022/04/08 06:53:56;;;;;;;9.03;3.30;;;;;;;11.58;52.33;98974.94;5022910;28;20167;-76
2022/04/08 06:56:21;;;;;;;7.80;3.30;;;;;;;11.77;51.19;98983.19;5016206;28;20536;-77
2022/04/08 06:58:46;;;;;;;7.10;3.27;;;;;;;11.14;51.98;98968.09;5018264;28;20187;-76
2022/04/08 07:01:11;;;;;;;7.87;3.23;;;;;;;11.12;52.72;98971.59;5018226;28;20428;-75
2022/04/08 07:03:37;;;;;;;8.07;3.07;;;;;;;11.14;53.25;98975.91;5013942;28;20214;-76
2022/04/08 07:06:03;;;;;;;6.13;3.10;;;;;;;10.86;52.05;98997.31;5018277;28;20274;-76
2022/04/08 07:08:28;;;;;;;3.40;2.73;;;;;;;11.44;51.60;98992.63;5011153;28;20442;-76
2022/04/08 07:10:54;;;;;;;3.30;2.47;;;;;;;11.27;51.85;98995.59;5014626;28;20418;-76
2022/04/08 07:13:19;;;;;;;6.73;3.00;;;;;;;11.72;51.00;98989.41;5013311;28;20571;-77
2022/04/08 07:15:44;;;;;;;4.90;2.63;;;;;;;12.97;47.96;98994.94;5018228;28;20258;-79
2022/04/08 07:18:13;;;;;;;4.87;2.97;;;;;;;12.96;47.38;98995.84;5014470;28;20215;-76
2022/04/08 07:20:38;;;;;;;6.37;3.10;;;;;;;12.73;47.33;98993.00;5018781;28;20179;-77
2022/04/08 07:23:05;;;;;;;3.67;2.40;;;;;;;12.92;46.89;99007.28;5017140;28;20845;-77
2022/04/08 07:25:31;;;;;;;4.40;3.03;;;;;;;11.29;49.35;99002.50;5009636;28;20294;-75
2022/04/08 07:27:58;;;;;;;4.80;3.17;;;;;;;12.32;48.23;99008.03;5016927;28;20721;-76
2022/04/08 07:30:24;;;;;;;5.13;2.90;;;;;;;12.12;48.49;99020.69;5017641;28;20447;-74
2022/04/08 07:32:54;;;;;;;6.43;3.17;;;;;;;10.77;51.71;99030.50;5018225;28;20430;-76
2022/04/08 07:35:30;;;;;;;3.43;2.67;;;;;;;9.60;54.67;99032.38;5013902;28;20194;-78
2022/04/08 07:37:55;;;;;;;6.87;3.07;;;;;;;8.23;60.70;99037.31;4998521;28;20458;-79
2022/04/08 07:40:21;;;;;;;5.13;2.40;;;;;;;8.94;58.65;99039.25;5016994;28;20425;-78
2022/04/08 07:42:46;;;;;;;2.90;2.60;;;;;;;9.28;58.99;99036.25;5018685;28;20175;-78
2022/04/08 07:45:12;;;;;;;3.47;2.40;;;;;;;10.17;55.64;99044.53;5009744;28;20190;-79
2022/04/08 07:47:37;;;;;;;3.70;2.60;;;;;;;8.49;59.75;99054.44;5027256;28;20163;-78
2022/04/08 07:50:10;;;;;;;3.00;2.03;;;;;;;8.36;61.63;99049.34;5038410;28;20193;-78
2022/04/08 07:52:39;;;;;;;3.00;2.30;;;;;;;8.67;60.57;99049.06;5016131;28;20187;-78
2022/04/08 07:55:06;;;;;;;3.10;2.40;;;;;;;9.03;58.89;99067.75;4998772;28;20415;-78
2022/04/08 07:57:31;;;;;;;3.70;2.50;;;;;;;8.83;60.32;99049.75;5014015;28;20427;-79
2022/04/08 07:59:56;;;;;;;5.00;2.90;;;;;;;8.52;61.20;99057.00;5011500;28;20433;-79
2022/04/08 08:02:23;;;;;;;4.03;2.80;;;;;;;8.77;60.95;99055.03;5004741;28;20273;-77
2022/04/08 08:04:51;;;;;;;4.60;2.67;;;;;;;7.70;62.44;99063.63;5020160;28;20171;-77
2022/04/08 08:07:16;;;;;;;5.47;3.00;;;;;;;7.44;63.73;99066.34;5023656;28;20384;-77
2022/04/08 08:09:41;;;;;;;4.33;2.73;;;;;;;7.61;63.59;99076.66;5018529;28;20804;-79
2022/04/08 08:12:07;;;;;;;4.73;2.83;;;;;;;7.71;62.87;99075.75;5018585;28;20544;-80
2022/04/08 08:14:32;;;;;;;4.87;3.10;;;;;;;7.07;64.40;99082.91;5017766;28;20486;-79
2022/04/08 08:16:58;;;;;;;5.30;3.23;;;;;;;8.28;62.84;99071.91;5020504;28;20241;-78
2022/04/08 08:19:23;;;;;;;5.57;3.17;;;;;;;10.28;56.27;99055.66;5021023;28;20246;-78
2022/04/08 08:21:48;;;;;;;4.20;2.90;;;;;;;11.15;53.42;99074.09;5019098;28;20528;-77
2022/04/08 08:24:14;;;;;;;7.63;3.80;;;;;;;12.40;48.58;99060.94;5019621;28;20545;-76
2022/04/08 08:26:39;;;;;;;6.43;3.00;;;;;;;11.36;52.33;99070.22;5020297;28;20194;-75
2022/04/08 08:29:05;;;;;;;8.40;3.23;;;;;;;9.74;56.45;99079.88;5021660;28;20470;-73
2022/04/08 08:31:31;;;;;;;8.73;3.13;;;;;;;9.39;57.07;99080.31;5027004;28;20187;-81
2022/04/08 08:33:56;;;;;;;7.00;2.93;;;;;;;9.30;57.52;99076.09;5028062;28;20171;-80
2022/04/08 08:36:22;;;;;;;4.00;3.00;;;;;;;10.55;53.84;99083.88;5024563;28;20229;-77
2022/04/08 08:38:47;;;;;;;5.73;3.20;;;;;;;10.22;55.57;99076.56;5031734;28;20163;-76
2022/04/08 08:41:13;;;;;;;3.87;3.40;;;;;;;8.75;58.63;99088.84;5030300;28;20188;-77
2022/04/08 08:43:38;;;;;;;7.10;3.10;;;;;;;9.17;58.91;99082.31;5029933;28;20259;-79
2022/04/08 08:46:04;;;;;;;5.93;3.17;;;;;;;10.40;54.79;99083.25;5031994;28;20177;-80
2022/04/08 08:48:35;;;;;;;5.07;3.03;;;;;;;10.62;55.45;99085.50;5015330;28;20183;-75
2022/04/08 08:51:02;;;;;;;5.63;2.93;;;;;;;10.45;55.54;99086.63;5025774;28;20389;-76
2022/04/08 08:53:41;;;;;;;5.20;3.60;;;;;;;11.19;54.31;99083.59;5027373;28;20399;-78
2022/04/08 08:56:07;;;;;;;5.20;3.67;;;;;;;10.33;54.49;99075.53;5021079;28;20483;-77
2022/04/08 08:58:34;;;;;;;5.80;3.33;;;;;;;10.01;55.01;99079.50;5021047;28;20483;-76
2022/04/08 09:01:09;;;;;;;4.60;3.33;;;;;;;9.19;57.21;99089.22;5020917;28;20208;-76
2022/04/08 09:03:35;;;;;;;7.07;3.57;;;;;;;8.90;58.36;99086.94;5020752;28;20546;-76
2022/04/08 09:06:16;;;;;;;5.23;3.00;;;;;;;8.22;59.78;99084.91;5021383;28;20396;-76
2022/04/08 09:08:42;;;;;;;3.40;3.00;;;;;;;9.31;57.11;99093.44;5020827;28;20197;-76
2022/04/08 09:11:07;;;;;;;5.83;3.47;;;;;;;11.35;53.72;99086.75;5021433;28;20418;-76
2022/04/08 09:13:44;;;;;;;5.43;3.10;;;;;;;12.79;48.86;99074.75;5020568;28;20671;-76
2022/04/08 09:16:09;;;;;;;6.13;3.20;;;;;;;13.88;45.21;99071.72;5021382;28;20171;-77
2022/04/08 09:18:37;;;;;;;4.83;3.27;;;;;;;12.33;47.59;99075.91;5021021;28;20525;-78
2022/04/08 09:21:02;;;;;;;5.80;3.30;;;;;;;10.98;50.33;99090.09;5021034;28;20499;-78
2022/04/08 09:23:28;;;;;;;5.53;3.17;;;;;;;10.36;52.14;99097.22;5020934;28;20485;-78
2022/04/08 09:26:04;;;;;;;6.33;2.97;;;;;;;9.99;53.77;99096.91;5020911;28;20163;-78
2022/04/08 09:28:37;;;;;;;6.53;3.00;;;;;;;10.72;51.46;99089.66;5021172;28;20174;-77
2022/04/08 09:31:03;;;;;;;6.30;3.30;;;;;;;8.95;55.24;99081.72;5020745;28;20408;-76
2022/04/08 09:33:29;;;;;;;5.80;3.00;;;;;;;10.21;54.00;99084.41;5020553;28;20451;-74
2022/04/08 09:35:57;;;;;;;4.07;3.00;;;;;;;11.82;49.54;99077.06;5019666;28;20477;-73
2022/04/08 09:38:29;;;;;;;4.13;2.80;;;;;;;12.86;46.22;99061.53;5015564;28;20828;-75
2022/04/08 09:41:03;;;;;;;4.30;2.97;;;;;;;12.69;45.76;99075.91;5018341;28;20388;-74
2022/04/08 09:43:33;;;;;;;6.47;3.10;;;;;;;12.17;47.00;99071.97;5020006;28;20400;-76
2022/04/08 09:46:13;;;;;;;4.67;3.03;;;;;;;13.39;44.62;99067.03;5012755;28;20422;-78
2022/04/08 09:48:38;;;;;;;4.20;3.03;;;;;;;12.60;45.77;99070.91;5008226;28;20425;-76
2022/04/08 09:51:04;;;;;;;4.30;2.73;;;;;;;11.83;47.03;99068.34;5013337;28;20504;-75
2022/04/08 09:53:29;;;;;;;3.20;2.50;;;;;;;11.67;47.42;99067.81;5018300;28;20182;-76
2022/04/08 09:55:54;;;;;;;4.60;3.20;;;;;;;11.50;47.71;99083.84;5011988;28;20546;-76
2022/04/08 09:58:20;;;;;;;6.40;2.93;;;;;;;12.06;46.81;99077.44;5010148;28;20183;-78
2022/04/08 10:00:47;;;;;;;7.97;2.87;;;;;;;12.54;44.11;99068.44;5020565;28;20475;-78
2022/04/08 10:03:12;;;;;;;3.63;2.80;;;;;;;13.05;43.96;99065.34;5019557;28;20440;-78
2022/04/08 10:05:37;;;;;;;4.27;3.00;;;;;;;12.44;42.88;99073.88;5002674;28;20743;-78
2022/04/08 10:08:05;;;;;;;3.17;2.90;;;;;;;13.80;42.96;99062.34;5020460;28;20218;-80
2022/04/08 10:10:42;;;;;;;4.67;2.70;;;;;;;11.40;44.82;99066.66;5019922;28;20191;-76
2022/04/08 10:13:44;;;;;;;4.73;2.77;;;;;;;9.49;50.67;99075.88;5020144;28;20480;-78
2022/04/08 10:16:16;;;;;;;3.97;2.80;;;;;;;9.77;51.52;99082.44;5003134;28;20835;-75
2022/04/08 10:18:43;;;;;;;3.63;2.93;;;;;;;11.20;49.24;99067.06;5001445;28;20734;-77
2022/04/08 10:21:10;;;;;;;6.80;3.00;;;;;;;10.94;47.81;99063.22;5004457;28;20449;-76
2022/04/08 10:23:38;;;;;;;4.20;3.00;;;;;;;11.14;46.05;99061.97;5017427;28;20513;-74
2022/04/08 10:26:05;;;;;;;6.30;3.30;;;;;;;11.43;46.03;99070.06;5014264;28;20404;-75
2022/04/08 10:28:37;;;;;;;5.80;3.27;;;;;;;12.19;45.16;99060.59;4999916;28;20389;-77
2022/04/08 10:31:14;;;;;;;4.00;2.67;;;;;;;12.38;44.96;99065.34;5011728;28;20426;-78
2022/04/08 10:33:46;;;;;;;5.20;3.07;;;;;;;12.76;44.47;99059.16;5019121;28;20404;-79
2022/04/08 10:36:11;;;;;;;3.20;2.90;;;;;;;12.26;44.07;99064.75;5019620;28;20396;-78
2022/04/08 10:38:37;;;;;;;4.13;2.93;;;;;;;13.99;41.79;99053.91;5019644;28;20418;-77
2022/04/08 10:41:07;;;;;;;3.60;2.73;;;;;;;11.67;42.92;99066.97;5018654;28;20552;-76
2022/04/08 10:43:42;;;;;;;4.07;3.00;;;;;;;12.90;40.40;99048.31;5007958;28;20462;-76
2022/04/08 10:46:10;;;;;;;4.63;3.03;;;;;;;14.24;37.18;99043.50;5000424;28;20477;-75
2022/04/08 10:48:37;;;;;;;3.87;2.87;;;;;;;12.95;38.59;99043.81;5015547;28;20433;-76
2022/04/08 10:51:09;;;;;;;6.40;3.20;;;;;;;12.62;39.48;99043.84;5018705;28;20566;-75
2022/04/08 10:53:40;;;;;;;3.70;2.90;;;;;;;13.41;38.10;99030.34;5017229;28;20486;-75
2022/04/08 10:56:12;;;;;;;5.13;3.40;;;;;;;13.88;37.22;99041.16;5009804;28;20415;-77
2022/04/08 10:58:42;;;;;;;5.37;3.00;;;;;;;13.67;37.80;99032.19;5019426;28;20437;-75
2022/04/08 11:01:22;;;;;;;4.90;3.30;;;;;;;15.06;35.89;99026.75;5018430;28;20853;-75
2022/04/08 11:04:02;;;;;;;4.47;3.10;;;;;;;13.99;37.46;99032.97;5018746;28;20465;-74
2022/04/08 11:06:30;;;;;;;4.37;3.00;;;;;;;14.67;36.12;99028.13;5014700;28;20430;-74
2022/04/08 11:08:56;;;;;;;3.70;3.10;;;;;;;14.52;36.47;99041.72;5017559;28;20438;-76
2022/04/08 11:11:32;;;;;;;3.10;2.80;;;;;;;13.85;37.96;99033.38;5014563;28;20719;-73
2022/04/08 11:13:59;;;;;;;4.27;3.10;;;;;;;13.27;39.13;99038.56;5010249;28;20477;-76
2022/04/08 11:16:29;;;;;;;6.03;3.33;;;;;;;12.90;39.16;99037.84;5004444;28;20494;-75
2022/04/08 11:18:54;;;;;;;3.40;3.10;;;;;;;12.77;40.77;99034.72;5003031;28;20458;-76
2022/04/08 11:21:21;;;;;;;3.90;3.00;;;;;;;13.47;38.03;99036.25;5010993;28;20768;-75
2022/04/08 11:24:04;;;;;;;5.20;2.90;;;;;;;13.54;38.34;99033.47;5019463;28;20181;-76
2022/04/08 11:26:31;;;;;;;3.30;3.00;;;;;;;13.03;38.57;99030.53;5014913;28;20476;-75
2022/04/08 11:29:11;;;;;;;5.07;3.30;;;;;;;14.25;36.42;99037.34;5019128;28;20809;-76
2022/04/08 11:31:39;;;;;;;6.50;3.23;;;;;;;14.59;35.37;99023.09;5013757;28;20450;-76
2022/04/08 11:34:05;;;;;;;6.50;2.90;;;;;;;14.01;36.43;99017.19;5009312;28;20446;-76
2022/04/08 11:36:31;;;;;;;3.87;2.90;;;;;;;14.27;35.60;99024.19;5024942;28;20537;-74
2022/04/08 11:38:56;;;;;;;3.53;2.63;;;;;;;13.58;34.98;99017.59;5023485;28;20500;-78
2022/04/08 11:41:23;;;;;;;4.20;3.13;;;;;;;13.23;35.06;99014.28;5018766;28;20487;-76
2022/04/08 11:43:48;;;;;;;3.03;2.70;;;;;;;12.06;37.34;99020.81;5025440;28;20274;-75